Terminal Aerodrome Forecast
Issued by NWS

Home | Current Version | Previous Version | Graphics & Text | Print | Product List | Glossary On
Versions: 1 2 3 4 5 6 7 8 9 10 11 12 13 14 15 16 17
000
FTUS43 KFGF 260500
TAFBJI
TAF
KBJI 260520Z 2606/2706 VRB04KT P6SM SCT050
     FM261700 26012G22KT P6SM SCT250
     FM270200 28008KT P6SM SCT250=

USA.gov is the U.S. government's official web portal to all federal, state and local government web resources and services.